sensor_id;sensor_type;location;lat;lon;timestamp;P1;durP1;ratioP1;P2;durP2;ratioP2
14001;SDS011;7076;51.280;12.584;2022-08-19T00:04:40;12.00;;;10.88;;
14001;SDS011;7076;51.280;12.584;2022-08-19T00:09:43;11.85;;;10.65;;
14001;SDS011;7076;51.280;12.584;2022-08-19T00:14:47;13.68;;;10.90;;
14001;SDS011;7076;51.280;12.584;2022-08-19T00:19:50;13.90;;;12.05;;
14001;SDS011;7076;51.280;12.584;2022-08-19T00:24:52;14.27;;;12.77;;
14001;SDS011;7076;51.280;12.584;2022-08-19T00:29:59;13.15;;;11.25;;
14001;SDS011;7076;51.280;12.584;2022-08-19T00:35:03;13.50;;;11.38;;
14001;SDS011;7076;51.280;12.584;2022-08-19T00:40:07;14.00;;;11.68;;
14001;SDS011;7076;51.280;12.584;2022-08-19T00:45:13;13.43;;;11.98;;
14001;SDS011;7076;51.280;12.584;2022-08-19T00:50:18;13.65;;;11.57;;
14001;SDS011;7076;51.280;12.584;2022-08-19T00:55:23;13.55;;;11.85;;
14001;SDS011;7076;51.280;12.584;2022-08-19T01:00:31;13.27;;;11.82;;
14001;SDS011;7076;51.280;12.584;2022-08-19T01:05:37;14.02;;;11.70;;
14001;SDS011;7076;51.280;12.584;2022-08-19T01:10:43;13.93;;;12.38;;
14001;SDS011;7076;51.280;12.584;2022-08-19T01:15:50;15.25;;;12.43;;
14001;SDS011;7076;51.280;12.584;2022-08-19T01:20:58;13.93;;;12.52;;
14001;SDS011;7076;51.280;12.584;2022-08-19T01:26:20;13.48;;;12.10;;
14001;SDS011;7076;51.280;12.584;2022-08-19T01:31:27;15.07;;;13.02;;
14001;SDS011;7076;51.280;12.584;2022-08-19T01:36:34;14.32;;;12.77;;
14001;SDS011;7076;51.280;12.584;2022-08-19T01:41:39;14.68;;;12.70;;
14001;SDS011;7076;51.280;12.584;2022-08-19T01:46:43;16.92;;;13.38;;
14001;SDS011;7076;51.280;12.584;2022-08-19T01:51:47;15.05;;;13.23;;
14001;SDS011;7076;51.280;12.584;2022-08-19T01:56:52;15.80;;;13.13;;
14001;SDS011;7076;51.280;12.584;2022-08-19T02:01:55;16.48;;;13.90;;
14001;SDS011;7076;51.280;12.584;2022-08-19T02:06:58;14.18;;;12.68;;
14001;SDS011;7076;51.280;12.584;2022-08-19T02:12:03;14.10;;;12.68;;
14001;SDS011;7076;51.280;12.584;2022-08-19T02:17:05;13.93;;;12.23;;
14001;SDS011;7076;51.280;12.584;2022-08-19T02:22:08;12.85;;;11.35;;
14001;SDS011;7076;51.280;12.584;2022-08-19T02:27:12;13.85;;;12.50;;
14001;SDS011;7076;51.280;12.584;2022-08-19T02:32:15;12.75;;;11.48;;
14001;SDS011;7076;51.280;12.584;2022-08-19T02:37:20;12.90;;;9.90;;
14001;SDS011;7076;51.280;12.584;2022-08-19T02:42:41;10.68;;;9.63;;
14001;SDS011;7076;51.280;12.584;2022-08-19T02:47:44;11.07;;;10.07;;
14001;SDS011;7076;51.280;12.584;2022-08-19T02:52:47;10.60;;;9.60;;
14001;SDS011;7076;51.280;12.584;2022-08-19T02:57:51;10.52;;;9.48;;
14001;SDS011;7076;51.280;12.584;2022-08-19T03:02:54;10.20;;;9.00;;
14001;SDS011;7076;51.280;12.584;2022-08-19T03:07:57;10.32;;;9.32;;
14001;SDS011;7076;51.280;12.584;2022-08-19T03:13:01;10.20;;;9.10;;
14001;SDS011;7076;51.280;12.584;2022-08-19T03:18:05;9.77;;;8.85;;
14001;SDS011;7076;51.280;12.584;2022-08-19T03:23:09;9.50;;;8.63;;
14001;SDS011;7076;51.280;12.584;2022-08-19T03:28:14;8.73;;;7.90;;
14001;SDS011;7076;51.280;12.584;2022-08-19T03:33:17;9.73;;;8.82;;
14001;SDS011;7076;51.280;12.584;2022-08-19T03:38:29;9.15;;;8.25;;
14001;SDS011;7076;51.280;12.584;2022-08-19T03:43:33;9.88;;;8.95;;
14001;SDS011;7076;51.280;12.584;2022-08-19T03:48:37;10.65;;;9.55;;
14001;SDS011;7076;51.280;12.584;2022-08-19T03:53:41;9.50;;;8.65;;
14001;SDS011;7076;51.280;12.584;2022-08-19T03:58:45;10.07;;;8.93;;
14001;SDS011;7076;51.280;12.584;2022-08-19T04:03:48;9.95;;;8.95;;
14001;SDS011;7076;51.280;12.584;2022-08-19T04:08:52;9.50;;;8.50;;
14001;SDS011;7076;51.280;12.584;2022-08-19T04:13:57;9.02;;;8.13;;
14001;SDS011;7076;51.280;12.584;2022-08-19T04:19:05;10.77;;;9.68;;
14001;SDS011;7076;51.280;12.584;2022-08-19T04:24:08;11.38;;;10.15;;
14001;SDS011;7076;51.280;12.584;2022-08-19T04:29:14;11.20;;;9.45;;
14001;SDS011;7076;51.280;12.584;2022-08-19T04:34:19;10.43;;;9.35;;
14001;SDS011;7076;51.280;12.584;2022-08-19T04:39:25;9.07;;;8.27;;
14001;SDS011;7076;51.280;12.584;2022-08-19T04:44:46;10.25;;;9.25;;
14001;SDS011;7076;51.280;12.584;2022-08-19T04:49:49;10.32;;;9.32;;
14001;SDS011;7076;51.280;12.584;2022-08-19T04:54:51;11.13;;;9.95;;
14001;SDS011;7076;51.280;12.584;2022-08-19T04:59:57;11.82;;;10.50;;
14001;SDS011;7076;51.280;12.584;2022-08-19T05:05:00;10.95;;;9.57;;
14001;SDS011;7076;51.280;12.584;2022-08-19T05:10:03;12.07;;;10.82;;
14001;SDS011;7076;51.280;12.584;2022-08-19T05:15:09;12.05;;;10.93;;
14001;SDS011;7076;51.280;12.584;2022-08-19T05:20:12;13.02;;;11.73;;
14001;SDS011;7076;51.280;12.584;2022-08-19T05:25:33;14.98;;;11.77;;
14001;SDS011;7076;51.280;12.584;2022-08-19T05:30:37;13.30;;;11.90;;
14001;SDS011;7076;51.280;12.584;2022-08-19T05:35:48;13.15;;;11.82;;
14001;SDS011;7076;51.280;12.584;2022-08-19T05:40:51;13.80;;;12.10;;
14001;SDS011;7076;51.280;12.584;2022-08-19T05:45:55;14.00;;;12.07;;
14001;SDS011;7076;51.280;12.584;2022-08-19T05:51:02;15.60;;;14.00;;
14001;SDS011;7076;51.280;12.584;2022-08-19T05:56:06;16.52;;;14.30;;
14001;SDS011;7076;51.280;12.584;2022-08-19T06:01:13;19.75;;;15.43;;
14001;SDS011;7076;51.280;12.584;2022-08-19T06:06:17;16.83;;;15.00;;
14001;SDS011;7076;51.280;12.584;2022-08-19T06:11:21;16.90;;;15.18;;
14001;SDS011;7076;51.280;12.584;2022-08-19T06:16:27;17.10;;;15.32;;
14001;SDS011;7076;51.280;12.584;2022-08-19T06:21:31;18.83;;;16.23;;
14001;SDS011;7076;51.280;12.584;2022-08-19T06:26:34;18.38;;;16.45;;
14001;SDS011;7076;51.280;12.584;2022-08-19T06:31:42;20.83;;;16.88;;
14001;SDS011;7076;51.280;12.584;2022-08-19T06:36:47;17.45;;;15.60;;
14001;SDS011;7076;51.280;12.584;2022-08-19T06:41:53;18.75;;;16.80;;
14001;SDS011;7076;51.280;12.584;2022-08-19T06:47:05;18.42;;;16.52;;
14001;SDS011;7076;51.280;12.584;2022-08-19T06:52:15;18.30;;;16.40;;
14001;SDS011;7076;51.280;12.584;2022-08-19T06:57:18;22.23;;;19.98;;
14001;SDS011;7076;51.280;12.584;2022-08-19T07:02:22;22.05;;;19.50;;
14001;SDS011;7076;51.280;12.584;2022-08-19T07:07:27;20.40;;;18.27;;
14001;SDS011;7076;51.280;12.584;2022-08-19T07:12:31;21.13;;;18.73;;
14001;SDS011;7076;51.280;12.584;2022-08-19T07:17:38;24.58;;;19.92;;
14001;SDS011;7076;51.280;12.584;2022-08-19T07:22:42;22.55;;;20.15;;
14001;SDS011;7076;51.280;12.584;2022-08-19T07:27:45;24.85;;;20.20;;
14001;SDS011;7076;51.280;12.584;2022-08-19T07:32:56;23.13;;;20.45;;
14001;SDS011;7076;51.280;12.584;2022-08-19T07:37:59;28.48;;;22.63;;
14001;SDS011;7076;51.280;12.584;2022-08-19T07:43:03;30.13;;;23.27;;
14001;SDS011;7076;51.280;12.584;2022-08-19T07:48:08;30.25;;;22.20;;
14001;SDS011;7076;51.280;12.584;2022-08-19T07:53:11;27.75;;;22.45;;
14001;SDS011;7076;51.280;12.584;2022-08-19T07:58:15;32.38;;;21.67;;
14001;SDS011;7076;51.280;12.584;2022-08-19T08:03:22;25.42;;;20.13;;
14001;SDS011;7076;51.280;12.584;2022-08-19T08:08:45;25.00;;;21.20;;
14001;SDS011;7076;51.280;12.584;2022-08-19T08:14:07;23.55;;;19.63;;
14001;SDS011;7076;51.280;12.584;2022-08-19T08:19:32;26.23;;;19.92;;
14001;SDS011;7076;51.280;12.584;2022-08-19T08:24:35;23.25;;;20.05;;
14001;SDS011;7076;51.280;12.584;2022-08-19T08:29:40;24.38;;;18.73;;
14001;SDS011;7076;51.280;12.584;2022-08-19T08:34:45;24.65;;;19.77;;
14001;SDS011;7076;51.280;12.584;2022-08-19T08:39:52;22.85;;;18.75;;
14001;SDS011;7076;51.280;12.584;2022-08-19T08:44:57;22.92;;;18.75;;
14001;SDS011;7076;51.280;12.584;2022-08-19T08:50:04;23.35;;;20.15;;
14001;SDS011;7076;51.280;12.584;2022-08-19T08:55:09;22.67;;;18.25;;
14001;SDS011;7076;51.280;12.584;2022-08-19T09:00:15;20.23;;;18.05;;
14001;SDS011;7076;51.280;12.584;2022-08-19T09:05:22;25.73;;;20.48;;
14001;SDS011;7076;51.280;12.584;2022-08-19T09:10:28;23.00;;;19.42;;
14001;SDS011;7076;51.280;12.584;2022-08-19T09:15:34;21.48;;;18.70;;
14001;SDS011;7076;51.280;12.584;2022-08-19T09:20:40;21.65;;;19.33;;
14001;SDS011;7076;51.280;12.584;2022-08-19T09:25:43;24.85;;;19.83;;
14001;SDS011;7076;51.280;12.584;2022-08-19T09:30:46;27.10;;;20.35;;
14001;SDS011;7076;51.280;12.584;2022-08-19T09:35:50;24.33;;;20.10;;
14001;SDS011;7076;51.280;12.584;2022-08-19T09:41:09;23.33;;;20.15;;
14001;SDS011;7076;51.280;12.584;2022-08-19T09:46:15;23.20;;;19.88;;
14001;SDS011;7076;51.280;12.584;2022-08-19T09:51:21;21.65;;;18.55;;
14001;SDS011;7076;51.280;12.584;2022-08-19T09:56:26;20.52;;;18.33;;
14001;SDS011;7076;51.280;12.584;2022-08-19T10:01:29;23.30;;;19.40;;
14001;SDS011;7076;51.280;12.584;2022-08-19T10:06:34;21.77;;;18.63;;
14001;SDS011;7076;51.280;12.584;2022-08-19T10:11:47;23.17;;;18.73;;
14001;SDS011;7076;51.280;12.584;2022-08-19T10:16:55;22.88;;;17.58;;
14001;SDS011;7076;51.280;12.584;2022-08-19T10:22:01;24.90;;;20.30;;
14001;SDS011;7076;51.280;12.584;2022-08-19T10:27:10;21.67;;;19.40;;
14001;SDS011;7076;51.280;12.584;2022-08-19T10:32:16;23.35;;;18.38;;
14001;SDS011;7076;51.280;12.584;2022-08-19T10:37:35;24.80;;;19.65;;
14001;SDS011;7076;51.280;12.584;2022-08-19T10:42:57;21.77;;;16.90;;
14001;SDS011;7076;51.280;12.584;2022-08-19T10:48:00;17.80;;;15.48;;
14001;SDS011;7076;51.280;12.584;2022-08-19T10:53:04;18.30;;;15.68;;
14001;SDS011;7076;51.280;12.584;2022-08-19T10:58:11;18.73;;;15.77;;
14001;SDS011;7076;51.280;12.584;2022-08-19T11:03:14;18.60;;;15.18;;
14001;SDS011;7076;51.280;12.584;2022-08-19T11:08:18;15.65;;;13.98;;
14001;SDS011;7076;51.280;12.584;2022-08-19T11:13:24;15.30;;;13.68;;
14001;SDS011;7076;51.280;12.584;2022-08-19T11:18:27;14.85;;;13.25;;
14001;SDS011;7076;51.280;12.584;2022-08-19T11:23:31;14.50;;;13.07;;
14001;SDS011;7076;51.280;12.584;2022-08-19T11:28:34;13.98;;;12.43;;
14001;SDS011;7076;51.280;12.584;2022-08-19T11:33:37;15.25;;;12.43;;
14001;SDS011;7076;51.280;12.584;2022-08-19T11:38:41;14.30;;;12.00;;
14001;SDS011;7076;51.280;12.584;2022-08-19T11:43:44;13.40;;;11.93;;
14001;SDS011;7076;51.280;12.584;2022-08-19T11:48:47;14.55;;;12.10;;
14001;SDS011;7076;51.280;12.584;2022-08-19T11:53:52;13.18;;;11.57;;
14001;SDS011;7076;51.280;12.584;2022-08-19T11:58:55;14.80;;;11.30;;
14001;SDS011;7076;51.280;12.584;2022-08-19T12:03:58;16.65;;;11.40;;
14001;SDS011;7076;51.280;12.584;2022-08-19T12:09:05;12.23;;;10.20;;
14001;SDS011;7076;51.280;12.584;2022-08-19T12:14:09;12.20;;;9.75;;
14001;SDS011;7076;51.280;12.584;2022-08-19T12:19:15;12.38;;;11.13;;
14001;SDS011;7076;51.280;12.584;2022-08-19T12:24:24;11.45;;;9.75;;
14001;SDS011;7076;51.280;12.584;2022-08-19T12:29:27;10.50;;;9.50;;
14001;SDS011;7076;51.280;12.584;2022-08-19T12:34:31;10.43;;;9.32;;
14001;SDS011;7076;51.280;12.584;2022-08-19T12:39:37;10.60;;;9.50;;
14001;SDS011;7076;51.280;12.584;2022-08-19T12:44:41;10.13;;;9.13;;
14001;SDS011;7076;51.280;12.584;2022-08-19T12:49:45;12.02;;;9.38;;
14001;SDS011;7076;51.280;12.584;2022-08-19T12:54:57;11.38;;;10.27;;
14001;SDS011;7076;51.280;12.584;2022-08-19T13:00:01;12.15;;;10.05;;
14001;SDS011;7076;51.280;12.584;2022-08-19T13:05:10;13.88;;;10.93;;
14001;SDS011;7076;51.280;12.584;2022-08-19T13:10:17;15.02;;;11.52;;
14001;SDS011;7076;51.280;12.584;2022-08-19T13:15:21;14.68;;;10.38;;
14001;SDS011;7076;51.280;12.584;2022-08-19T13:20:25;10.73;;;9.55;;
14001;SDS011;7076;51.280;12.584;2022-08-19T13:25:29;9.85;;;8.77;;
14001;SDS011;7076;51.280;12.584;2022-08-19T13:30:32;12.32;;;9.40;;
14001;SDS011;7076;51.280;12.584;2022-08-19T13:35:56;8.98;;;8.07;;
14001;SDS011;7076;51.280;12.584;2022-08-19T13:41:05;13.82;;;10.73;;
14001;SDS011;7076;51.280;12.584;2022-08-19T13:46:15;12.23;;;9.75;;
14001;SDS011;7076;51.280;12.584;2022-08-19T13:51:18;12.10;;;10.00;;
14001;SDS011;7076;51.280;12.584;2022-08-19T13:56:22;12.43;;;10.10;;
14001;SDS011;7076;51.280;12.584;2022-08-19T14:01:27;12.30;;;10.57;;
14001;SDS011;7076;51.280;12.584;2022-08-19T14:06:31;14.38;;;12.27;;
14001;SDS011;7076;51.280;12.584;2022-08-19T14:11:36;10.07;;;8.98;;
14001;SDS011;7076;51.280;12.584;2022-08-19T14:16:39;11.38;;;10.18;;
14001;SDS011;7076;51.280;12.584;2022-08-19T14:21:42;11.60;;;9.60;;
14001;SDS011;7076;51.280;12.584;2022-08-19T14:26:46;11.00;;;9.50;;
14001;SDS011;7076;51.280;12.584;2022-08-19T14:31:50;12.43;;;11.10;;
14001;SDS011;7076;51.280;12.584;2022-08-19T14:36:53;11.45;;;10.25;;
14001;SDS011;7076;51.280;12.584;2022-08-19T14:41:57;12.40;;;10.73;;
14001;SDS011;7076;51.280;12.584;2022-08-19T14:47:01;11.43;;;10.10;;
14001;SDS011;7076;51.280;12.584;2022-08-19T14:52:04;12.27;;;10.63;;
14001;SDS011;7076;51.280;12.584;2022-08-19T14:57:10;15.10;;;11.63;;
14001;SDS011;7076;51.280;12.584;2022-08-19T15:02:13;16.00;;;13.23;;
14001;SDS011;7076;51.280;12.584;2022-08-19T15:07:35;12.30;;;11.00;;
14001;SDS011;7076;51.280;12.584;2022-08-19T15:12:39;13.40;;;12.00;;
14001;SDS011;7076;51.280;12.584;2022-08-19T15:17:44;12.35;;;9.88;;
14001;SDS011;7076;51.280;12.584;2022-08-19T15:22:47;10.88;;;9.43;;
14001;SDS011;7076;51.280;12.584;2022-08-19T15:27:51;9.93;;;8.85;;
14001;SDS011;7076;51.280;12.584;2022-08-19T15:32:55;11.20;;;8.95;;
14001;SDS011;7076;51.280;12.584;2022-08-19T15:38:00;10.23;;;9.15;;
14001;SDS011;7076;51.280;12.584;2022-08-19T15:43:04;11.30;;;8.70;;
14001;SDS011;7076;51.280;12.584;2022-08-19T15:48:07;9.57;;;8.55;;
14001;SDS011;7076;51.280;12.584;2022-08-19T15:53:09;10.75;;;8.02;;
14001;SDS011;7076;51.280;12.584;2022-08-19T15:58:14;9.63;;;8.73;;
14001;SDS011;7076;51.280;12.584;2022-08-19T16:03:34;9.55;;;8.55;;
14001;SDS011;7076;51.280;12.584;2022-08-19T16:08:55;9.23;;;8.07;;
14001;SDS011;7076;51.280;12.584;2022-08-19T16:14:01;12.93;;;8.63;;
14001;SDS011;7076;51.280;12.584;2022-08-19T16:19:05;10.20;;;8.85;;
14001;SDS011;7076;51.280;12.584;2022-08-19T16:24:12;11.77;;;10.23;;
14001;SDS011;7076;51.280;12.584;2022-08-19T16:29:18;12.30;;;9.80;;
14001;SDS011;7076;51.280;12.584;2022-08-19T16:34:35;13.82;;;11.13;;
14001;SDS011;7076;51.280;12.584;2022-08-19T16:39:38;12.27;;;10.82;;
14001;SDS011;7076;51.280;12.584;2022-08-19T16:44:45;14.20;;;10.60;;
14001;SDS011;7076;51.280;12.584;2022-08-19T16:49:48;10.20;;;9.13;;
14001;SDS011;7076;51.280;12.584;2022-08-19T16:54:55;11.23;;;8.95;;
14001;SDS011;7076;51.280;12.584;2022-08-19T16:59:59;10.68;;;9.57;;
14001;SDS011;7076;51.280;12.584;2022-08-19T17:05:06;9.88;;;8.88;;
14001;SDS011;7076;51.280;12.584;2022-08-19T17:10:10;10.93;;;9.20;;
14001;SDS011;7076;51.280;12.584;2022-08-19T17:15:14;11.95;;;9.60;;
14001;SDS011;7076;51.280;12.584;2022-08-19T17:20:17;11.48;;;10.27;;
14001;SDS011;7076;51.280;12.584;2022-08-19T17:25:20;10.82;;;8.20;;
14001;SDS011;7076;51.280;12.584;2022-08-19T17:30:24;10.27;;;9.02;;
14001;SDS011;7076;51.280;12.584;2022-08-19T17:35:27;8.70;;;7.82;;
14001;SDS011;7076;51.280;12.584;2022-08-19T17:40:30;8.73;;;7.72;;
14001;SDS011;7076;51.280;12.584;2022-08-19T17:45:35;9.13;;;7.93;;
14001;SDS011;7076;51.280;12.584;2022-08-19T17:50:38;9.75;;;8.10;;
14001;SDS011;7076;51.280;12.584;2022-08-19T17:55:42;9.98;;;6.93;;
14001;SDS011;7076;51.280;12.584;2022-08-19T18:00:49;9.23;;;8.13;;
14001;SDS011;7076;51.280;12.584;2022-08-19T18:05:54;8.15;;;7.28;;
14001;SDS011;7076;51.280;12.584;2022-08-19T18:10:58;8.55;;;6.97;;
14001;SDS011;7076;51.280;12.584;2022-08-19T18:16:03;7.90;;;7.05;;
14001;SDS011;7076;51.280;12.584;2022-08-19T18:21:07;7.97;;;7.22;;
14001;SDS011;7076;51.280;12.584;2022-08-19T18:26:10;8.02;;;7.28;;
14001;SDS011;7076;51.280;12.584;2022-08-19T18:31:15;9.57;;;8.23;;
14001;SDS011;7076;51.280;12.584;2022-08-19T18:36:18;6.97;;;6.38;;
14001;SDS011;7076;51.280;12.584;2022-08-19T18:41:41;7.93;;;5.97;;
14001;SDS011;7076;51.280;12.584;2022-08-19T18:47:03;8.32;;;6.38;;
14001;SDS011;7076;51.280;12.584;2022-08-19T18:52:23;7.32;;;6.63;;
14001;SDS011;7076;51.280;12.584;2022-08-19T18:57:27;7.63;;;6.32;;
14001;SDS011;7076;51.280;12.584;2022-08-19T19:02:34;8.43;;;7.57;;
14001;SDS011;7076;51.280;12.584;2022-08-19T19:07:39;8.80;;;5.95;;
14001;SDS011;7076;51.280;12.584;2022-08-19T19:12:42;7.20;;;6.50;;
14001;SDS011;7076;51.280;12.584;2022-08-19T19:17:47;9.00;;;8.13;;
14001;SDS011;7076;51.280;12.584;2022-08-19T19:22:50;7.75;;;7.03;;
14001;SDS011;7076;51.280;12.584;2022-08-19T19:27:58;8.93;;;8.07;;
14001;SDS011;7076;51.280;12.584;2022-08-19T19:33:02;7.13;;;6.47;;
14001;SDS011;7076;51.280;12.584;2022-08-19T19:38:06;8.80;;;7.90;;
14001;SDS011;7076;51.280;12.584;2022-08-19T19:43:08;9.10;;;8.25;;
14001;SDS011;7076;51.280;12.584;2022-08-19T19:48:13;9.85;;;7.85;;
14001;SDS011;7076;51.280;12.584;2022-08-19T19:53:16;10.25;;;8.75;;
14001;SDS011;7076;51.280;12.584;2022-08-19T19:58:19;10.73;;;9.63;;
14001;SDS011;7076;51.280;12.584;2022-08-19T20:03:30;10.43;;;9.25;;
14001;SDS011;7076;51.280;12.584;2022-08-19T20:08:33;10.20;;;8.98;;
14001;SDS011;7076;51.280;12.584;2022-08-19T20:13:54;9.63;;;8.73;;
14001;SDS011;7076;51.280;12.584;2022-08-19T20:18:59;11.20;;;10.00;;
14001;SDS011;7076;51.280;12.584;2022-08-19T20:24:03;12.63;;;11.05;;
14001;SDS011;7076;51.280;12.584;2022-08-19T20:29:10;13.23;;;11.45;;
14001;SDS011;7076;51.280;12.584;2022-08-19T20:34:34;14.45;;;11.05;;
14001;SDS011;7076;51.280;12.584;2022-08-19T20:39:37;12.05;;;10.82;;
14001;SDS011;7076;51.280;12.584;2022-08-19T20:44:40;12.93;;;11.20;;
14001;SDS011;7076;51.280;12.584;2022-08-19T20:49:44;12.13;;;10.90;;
14001;SDS011;7076;51.280;12.584;2022-08-19T20:54:47;12.75;;;11.48;;
14001;SDS011;7076;51.280;12.584;2022-08-19T20:59:50;12.73;;;11.38;;
14001;SDS011;7076;51.280;12.584;2022-08-19T21:04:54;14.02;;;11.27;;
14001;SDS011;7076;51.280;12.584;2022-08-19T21:10:00;14.93;;;13.40;;
14001;SDS011;7076;51.280;12.584;2022-08-19T21:15:05;14.55;;;12.68;;
14001;SDS011;7076;51.280;12.584;2022-08-19T21:20:10;13.95;;;12.40;;
14001;SDS011;7076;51.280;12.584;2022-08-19T21:25:14;16.30;;;13.52;;
14001;SDS011;7076;51.280;12.584;2022-08-19T21:30:17;18.63;;;13.57;;
14001;SDS011;7076;51.280;12.584;2022-08-19T21:35:21;14.55;;;12.93;;
14001;SDS011;7076;51.280;12.584;2022-08-19T21:40:24;16.10;;;12.55;;
14001;SDS011;7076;51.280;12.584;2022-08-19T21:45:28;14.40;;;12.10;;
14001;SDS011;7076;51.280;12.584;2022-08-19T21:50:32;13.95;;;11.95;;
14001;SDS011;7076;51.280;12.584;2022-08-19T21:55:36;16.15;;;13.82;;
14001;SDS011;7076;51.280;12.584;2022-08-19T22:00:39;13.20;;;11.93;;
14001;SDS011;7076;51.280;12.584;2022-08-19T22:05:43;15.20;;;13.57;;
14001;SDS011;7076;51.280;12.584;2022-08-19T22:10:46;17.50;;;15.10;;
14001;SDS011;7076;51.280;12.584;2022-08-19T22:15:51;16.88;;;13.95;;
14001;SDS011;7076;51.280;12.584;2022-08-19T22:20:56;15.88;;;14.23;;
14001;SDS011;7076;51.280;12.584;2022-08-19T22:25:59;16.63;;;14.02;;
14001;SDS011;7076;51.280;12.584;2022-08-19T22:31:02;13.63;;;12.23;;
14001;SDS011;7076;51.280;12.584;2022-08-19T22:36:08;15.23;;;12.48;;
14001;SDS011;7076;51.280;12.584;2022-08-19T22:41:11;14.15;;;12.77;;
14001;SDS011;7076;51.280;12.584;2022-08-19T22:46:13;14.15;;;12.25;;
14001;SDS011;7076;51.280;12.584;2022-08-19T22:51:19;14.60;;;13.05;;
14001;SDS011;7076;51.280;12.584;2022-08-19T22:56:39;16.02;;;14.02;;
14001;SDS011;7076;51.280;12.584;2022-08-19T23:01:43;16.77;;;13.57;;
14001;SDS011;7076;51.280;12.584;2022-08-19T23:06:47;15.90;;;14.23;;
14001;SDS011;7076;51.280;12.584;2022-08-19T23:11:53;16.02;;;13.60;;
14001;SDS011;7076;51.280;12.584;2022-08-19T23:16:55;15.98;;;13.90;;
14001;SDS011;7076;51.280;12.584;2022-08-19T23:22:01;16.90;;;13.75;;
14001;SDS011;7076;51.280;12.584;2022-08-19T23:27:05;16.88;;;14.57;;
14001;SDS011;7076;51.280;12.584;2022-08-19T23:32:25;15.05;;;13.32;;
14001;SDS011;7076;51.280;12.584;2022-08-19T23:37:29;17.67;;;14.57;;
14001;SDS011;7076;51.280;12.584;2022-08-19T23:42:32;18.52;;;14.77;;
14001;SDS011;7076;51.280;12.584;2022-08-19T23:47:35;18.10;;;13.98;;
14001;SDS011;7076;51.280;12.584;2022-08-19T23:52:43;18.50;;;14.88;;
14001;SDS011;7076;51.280;12.584;2022-08-19T23:57:50;15.98;;;13.52;;
